ADDS METAR Data INFO
IDs: Format: Raw Decoded Include TAF

Data at: 2113 UTC 22 Oct 2017

KACQ 222052Z AUTO 22006KT 10SM CLR 17/M01 A2999 RMK AO2
KACQ 222032Z AUTO 25007KT 10SM CLR 17/00 A2999 RMK AO2
KACQ 222013Z AUTO 26008KT 10SM CLR 17/M01 A3000 RMK AO2
KACQ 221952Z AUTO 27006KT 10SM CLR 17/00 A3000 RMK AO2
KACQ 221932Z AUTO 26008KT 10SM CLR 17/00 A3000 RMK AO2
KACQ 221913Z AUTO 26011G16KT 10SM CLR 17/01 A3000 RMK AO2
KACQ 221852Z AUTO 27009G16KT 10SM CLR 17/02 A3001 RMK AO2
KACQ 221833Z AUTO 27009G16KT 10SM CLR 17/02 A3002 RMK AO2
KACQ 221812Z AUTO 26009KT 10SM CLR 15/02 A3002 RMK AO2
KACQ 221752Z AUTO 25008KT 10SM CLR 15/03 A3002 RMK AO2
KACQ 221733Z AUTO 25007KT 10SM CLR 15/03 A3003 RMK AO2
KACQ 221712Z AUTO 24005KT 10SM CLR 14/04 A3004 RMK AO2
KACQ 221652Z AUTO 23004KT 10SM CLR 13/06 A3004 RMK AO2
KACQ 221632Z AUTO 25005KT 10SM CLR 11/05 A3005 RMK AO2
KACQ 221613Z AUTO 25005KT 10SM CLR 11/06 A3005 RMK AO2
KACQ 221552Z AUTO 25006KT 10SM CLR 09/05 A3004 RMK AO2
KACQ 221532Z AUTO 26006KT 10SM CLR 10/06 A3004 RMK AO2
KACQ 221512Z AUTO 25007KT 10SM CLR 08/05 A3004 RMK AO2
KACQ 221452Z AUTO 25007KT 10SM CLR 08/05 A3003 RMK AO2
KACQ 221432Z AUTO 24005KT 10SM CLR 07/05 A3003 RMK AO2
KACQ 221412Z AUTO 24004KT 10SM CLR 07/05 A3002 RMK AO2
KACQ 221353Z AUTO 26004KT 10SM CLR 07/05 A3001 RMK AO2
KACQ 221332Z AUTO 24004KT 10SM CLR 07/05 A3001 RMK AO2
KACQ 221312Z AUTO 24004KT 10SM CLR 07/05 A3001 RMK AO2
KACQ 221253Z AUTO 25003KT 10SM CLR 07/05 A3001 RMK AO2
KACQ 221232Z AUTO 24004KT 10SM CLR 06/05 A3000 RMK AO2
KACQ 221212Z AUTO 23003KT 10SM CLR 06/05 A3000 RMK AO2
KACQ 221153Z AUTO 25004KT 10SM CLR 07/05 A2998 RMK AO2
KACQ 221132Z AUTO 24004KT 10SM CLR 07/05 A2998 RMK AO2
KACQ 221112Z AUTO 24005KT 10SM CLR 07/05 A2998 RMK AO2
KACQ 221053Z AUTO 26004KT 10SM CLR 07/05 A2997 RMK AO2
KACQ 221032Z AUTO 26004KT 10SM CLR 07/05 A2997 RMK AO2
KACQ 221012Z AUTO 26005KT 10SM CLR 07/05 A2996 RMK AO2
KACQ 220953Z AUTO 25004KT 10SM CLR 07/05 A2995 RMK AO2
KACQ 220933Z AUTO 00000KT 10SM CLR 07/05 A2994 RMK AO2
KACQ 220912Z AUTO 25004KT 10SM CLR 07/05 A2994 RMK AO2
KACQ 220852Z AUTO 25005KT 10SM CLR 07/05 A2994 RMK AO2
KACQ 220833Z AUTO 26005KT 10SM CLR 07/05 A2992 RMK AO2
KACQ 220813Z AUTO 27005KT 10SM CLR 07/05 A2993 RMK AO2
KACQ 220752Z AUTO 25005KT 10SM CLR 07/05 A2993 RMK AO2
KACQ 220732Z AUTO 25006KT 10SM CLR 07/06 A2993 RMK AO2
KACQ 220713Z AUTO 26006KT 10SM CLR 08/06 A2991 RMK AO2
KACQ 220653Z AUTO 25006KT 10SM CLR 08/06 A2991 RMK AO2
KACQ 220633Z AUTO 26004KT 10SM CLR 08/06 A2991 RMK AO2
KACQ 220612Z AUTO 26004KT 10SM CLR 08/06 A2991 RMK AO2
KACQ 220552Z AUTO 26006KT 10SM CLR 08/06 A2991 RMK AO2 LTG DSNT S
KACQ 220532Z AUTO 25006KT 10SM CLR 08/06 A2991 RMK AO2
KACQ 220513Z AUTO 25005KT 10SM CLR 10/07 A2991 RMK AO2
KACQ 220453Z AUTO 26005KT 10SM CLR 10/06 A2990 RMK AO2
KACQ 220433Z AUTO 27006KT 10SM CLR 11/07 A2990 RMK AO2
KACQ 220413Z AUTO 28008KT 10SM CLR 11/07 A2989 RMK AO2
KACQ 220352Z AUTO 27008KT 10SM CLR 11/08 A2988 RMK AO2 LTG DSNT SE
KACQ 220333Z AUTO 28012KT 10SM SCT060 11/07 A2986 RMK AO2 LTG DSNT SE
KACQ 220312Z AUTO 28010G15KT 10SM BKN060 11/08 A2985 RMK AO2
KACQ 220253Z AUTO 26008G14KT 10SM BKN060 11/09 A2985 RMK AO2
KACQ 220232Z AUTO 26005KT 10SM SCT070 11/10 A2983 RMK AO2 LTG DSNT E
KACQ 220212Z AUTO 25004KT 10SM BKN070 BKN100 11/10 A2981 RMK AO2 LTG DSNT E
KACQ 220153Z AUTO 27004KT 10SM SCT047 BKN060 OVC100 12/10 A2979 RMK AO2 LTG DSNT NE THRU SE P0004
KACQ 220132Z AUTO 27005KT 10SM SCT034 BKN050 OVC070 12/11 A2979 RMK AO2 LTG DSNT E AND SE P0004
KACQ 220112Z AUTO 30004KT 4SM +RA OVC030 12/10 A2978 RMK AO2 LTG DSNT SE P0004
KACQ 220052Z AUTO 27010G16KT 10SM VCTS OVC028 13/11 A2980 RMK AO2 LTG DSNT E THRU SW
KACQ 220032Z AUTO 28004KT 10SM OVC026 13/11 A2979 RMK AO2 LTG DSNT SE AND S
KACQ 220012Z AUTO 28010G14KT 10SM -DZ OVC024 13/11 A2979 RMK AO2 LTG DSNT SE AND S
KACQ 212353Z AUTO 28011G23KT 7SM +DZ SCT019 OVC024 13/11 A2978 RMK AO2 LTG DSNT S
KACQ 212332Z AUTO 27017G23KT 10SM -RA SCT021 BKN036 OVC050 16/12 A2975 RMK AO2 LTG DSNT S
KACQ 212313Z AUTO 17013G18KT 10SM SCT036 BKN044 OVC070 18/15 A2971 RMK AO2
KACQ 212252Z AUTO 16013G23KT 10SM SCT037 SCT050 BKN070 18/15 A2970 RMK AO2 LTG DSNT N
KACQ 212232Z AUTO 16013G18KT 10SM SCT037 BKN044 18/15 A2969 RMK AO2 LTG DSNT NW
KACQ 212212Z AUTO 16013G23KT 10SM BKN049 18/15 A2970 RMK AO2 LTG DSNT N
KACQ 212153Z AUTO 16014G22KT 10SM SCT030 BKN049 18/15 A2968 RMK AO2 LTG DSNT W AND NW
KACQ 212132Z AUTO 16018G24KT 10SM BKN032 BKN039 BKN047 19/15 A2969 RMK AO2
KACQ 212113Z AUTO 16016G25KT 10SM SCT032 SCT039 SCT047 19/15 A2968 RMK AO2
KACQ 212052Z AUTO 15017G24KT 10SM SCT043 SCT055 SCT070 20/15 A2968 RMK AO2 LTG DSNT W AND NW
KACQ 212033Z AUTO 15012G21KT 10SM SCT025 BKN041 OVC070 18/15 A2970 RMK AO2
KACQ 212012Z AUTO 16014G19KT 10SM BKN024 OVC030 18/15 A2971 RMK AO2 LTG DSNT NW
KACQ 211952Z AUTO 16013G20KT 10SM OVC024 18/15 A2971 RMK AO2
KACQ 211933Z AUTO 16014G21KT 10SM SCT019 OVC024 18/15 A2971 RMK AO2
KACQ 211912Z AUTO 16016G24KT 10SM OVC019 17/15 A2971 RMK AO2
KACQ 211853Z AUTO 17017G22KT 10SM OVC021 17/15 A2972 RMK AO2
KACQ 211832Z AUTO 17013G26KT 10SM OVC019 17/15 A2971 RMK AO2
KACQ 211812Z AUTO 17019G25KT 10SM OVC017 17/15 A2971 RMK AO2
KACQ 211753Z AUTO 19015G30KT 10SM BKN014 OVC020 17/15 A2972 RMK AO2
KACQ 211732Z AUTO 16015G22KT 10SM BKN013 OVC019 17/15 A2971 RMK AO2
KACQ 211712Z AUTO 17016G24KT 10SM OVC013 17/15 A2972 RMK AO2
KACQ 211653Z AUTO 16013G24KT 10SM BKN013 OVC020 17/15 A2972 RMK AO2
KACQ 211632Z AUTO 16016G25KT 10SM SCT012 OVC020 17/15 A2972 RMK AO2
KACQ 211612Z AUTO 17016G24KT 10SM BKN010 OVC015 17/15 A2972 RMK AO2 LTG DSNT E
KACQ 211552Z AUTO 16012G21KT 10SM OVC010 16/15 A2972 RMK AO2 P0001
KACQ 211533Z AUTO 16014G21KT 7SM OVC012 15/14 A2972 RMK AO2 LTG DSNT NE P0001
KACQ 211512Z AUTO 16013G17KT 4SM RA OVC012 15/13 A2972 RMK AO2 LTG DSNT NE P0001
KACQ 211453Z AUTO 15007G14KT 10SM TS BKN012 OVC017 15/14 A2973 RMK AO2 LTG DSNT N NE AND S P0005
KACQ 211432Z AUTO 12006KT 10SM -TSRA BKN012 BKN018 OVC048 15/14 A2972 RMK AO2 LTG DSNT W THRU N P0005
KACQ 211412Z AUTO 13009KT 4SM TSRA BKN015 OVC026 15/13 A2972 RMK AO2 LTG DSNT ALQS P0004
KACQ 211353Z AUTO 12008KT 5SM TSRA SCT017 BKN049 OVC065 15/13 A2972 RMK AO2 LTG DSNT ALQS P0017
KACQ 211332Z AUTO 16010G17KT 4SM RA SCT017 BKN049 OVC065 15/13 A2974 RMK AO2 LTG DSNT ALQS P0015
KACQ 211312Z AUTO 16016G25KT 4SM VCTSRA SCT024 BKN039 OVC065 14/13 A2973 RMK AO2 LTG DSNT ALQS P0003
KACQ 211252Z AUTO 16014G22KT 4SM +RA SCT020 BKN038 OVC065 13/12 A2972 RMK AO2 LTG DSNT SW AND W P0010
KACQ 211233Z AUTO 16012G24KT 7SM VCTSRA SCT017 BKN050 OVC100 13/12 A2971 RMK AO2 LTG DSNT N SE AND NW P0003
KACQ 211212Z AUTO 16016G21KT 10SM -RA BKN019 OVC110 15/13 A2971 RMK AO2 LTG DSNT E SW AND NW P0001
KACQ 211153Z AUTO 15009G14KT 10SM -RA BKN021 BKN044 OVC100 13/12 A2971 RMK AO2 LTG DSNT NW THRU E P0006
KACQ 211132Z AUTO 16013G19KT 7SM RA SCT023 BKN044 OVC100 13/12 A2972 RMK AO2 LTG DSNT ALQS P0005
KACQ 211112Z AUTO 16012G16KT 7SM -VCTSRA SCT022 BKN029 OVC070 13/12 A2972 RMK AO2 LTG DSNT ALQS P0003
KACQ 211053Z AUTO 16011G19KT 3SM +TSRA SCT018 BKN029 OVC045 13/12 A2972 RMK AO2 LTG DSNT ALQS P0008
KACQ 211033Z AUTO 15011G16KT 10SM SCT034 BKN050 OVC065 15/11 A2971 RMK AO2 LTG DSNT SE THRU SW
KACQ 211012Z AUTO 15011G17KT 10SM BKN050 OVC065 15/11 A2971 RMK AO2
KACQ 210952Z AUTO 14011G20KT 10SM SCT031 OVC050 17/11 A2970 RMK AO2 LTG DSNT S AND SW
KACQ 210933Z AUTO 16013G22KT 10SM BKN031 17/11 A2971 RMK AO2